Time;durP1;ratioP1;P1;durP2;ratioP2;P2;SDS_P1;SDS_P2;PMS_P1;PMS_P2;Temp;Humidity;BMP_temperature;BMP_pressure;BME280_temperature;BME280_humidity;BME280_pressure;Samples;Min_cycle;Max_cycle;Signal;HPM_P1;HPM_P2
2022/02/03 06:48:15;;;;;;;19.85;10.93;;;;;;;3.91;100.00;99477.31;5136548;27;20389;-84
2022/02/03 06:50:45;;;;;;;30.85;14.27;;;;;;;4.07;100.00;99480.38;5109869;28;20040;-84
2022/02/03 06:53:15;;;;;;;29.35;14.93;;;;;;;4.17;100.00;99466.97;5110195;28;20047;-83
2022/02/03 06:55:47;;;;;;;;;;;;;;;4.36;100.00;99478.78;5108251;28;20475;-85
2022/02/03 06:58:20;;;;;;;24.10;12.40;;;;;;;4.35;100.00;99467.16;5116113;28;19973;-85
2022/02/03 07:00:57;;;;;;;23.23;13.68;;;;;;;4.49;100.00;99475.84;5109843;28;20376;-85
2022/02/03 07:03:30;;;;;;;29.65;15.55;;;;;;;4.43;100.00;99464.63;5108248;28;20052;-84
2022/02/03 07:05:57;;;;;;;24.42;14.40;;;;;;;4.47;100.00;99462.53;5113953;28;20039;-84
2022/02/03 07:08:26;;;;;;;28.65;14.27;;;;;;;4.58;100.00;99470.47;5120391;28;20134;-85
2022/02/03 07:10:55;;;;;;;30.33;16.20;;;;;;;4.66;100.00;99479.69;5110665;28;20105;-84
2022/02/03 07:13:25;;;;;;;24.33;14.20;;;;;;;4.63;100.00;99479.97;5109147;28;20048;-85
2022/02/03 07:15:54;;;;;;;24.25;13.90;;;;;;;4.63;100.00;99488.91;5109129;28;20093;-84
2022/02/03 07:18:21;;;;;;;24.05;13.20;;;;;;;4.56;100.00;99482.34;5109046;28;20068;-84
2022/02/03 07:20:50;;;;;;;22.85;12.45;;;;;;;4.59;100.00;99476.69;5108669;28;20044;-84
2022/02/03 07:23:17;;;;;;;16.63;9.77;;;;;;;4.76;100.00;99499.44;5111290;28;20388;-85
2022/02/03 07:25:43;;;;;;;18.85;10.50;;;;;;;4.77;100.00;99490.31;5109402;28;20301;-85
2022/02/03 07:28:12;;;;;;;19.52;10.25;;;;;;;4.73;100.00;99468.22;5108760;28;20467;-85
2022/02/03 07:30:39;;;;;;;17.85;11.20;;;;;;;4.84;100.00;99472.63;5107023;28;20048;-85
2022/02/03 07:33:11;;;;;;;19.63;10.77;;;;;;;4.93;100.00;99465.53;5107413;28;20047;-84
2022/02/03 07:35:39;;;;;;;25.20;11.48;;;;;;;4.84;100.00;99461.00;5117158;28;20475;-85
2022/02/03 07:38:10;;;;;;;33.60;21.02;;;;;;;4.87;100.00;99480.44;5108806;28;20055;-85
2022/02/03 07:40:36;;;;;;;22.25;12.32;;;;;;;5.01;100.00;99468.38;5107809;28;20044;-85
2022/02/03 07:43:09;;;;;;;24.50;13.55;;;;;;;5.08;100.00;99449.81;5110460;28;20097;-85
2022/02/03 07:45:38;;;;;;;21.60;11.68;;;;;;;5.17;100.00;99466.97;5092534;28;20044;-84
2022/02/03 07:48:05;;;;;;;19.23;10.88;;;;;;;5.14;100.00;99454.63;5113036;28;20131;-85
2022/02/03 07:50:32;;;;;;;22.23;11.98;;;;;;;5.21;100.00;99444.97;5104491;28;20399;-85
2022/02/03 07:52:59;;;;;;;25.30;11.93;;;;;;;5.29;100.00;99442.41;5113156;28;20063;-85
2022/02/03 07:55:27;;;;;;;21.58;11.35;;;;;;;5.26;100.00;99437.28;5107590;28;20461;-85
2022/02/03 07:57:55;;;;;;;22.08;11.70;;;;;;;5.23;100.00;99421.41;5104144;28;20517;-85
2022/02/03 08:00:24;;;;;;;21.65;10.40;;;;;;;5.25;100.00;99430.19;5096415;28;20044;-85
2022/02/03 08:02:51;;;;;;;17.88;11.20;;;;;;;5.31;100.00;99435.03;5108400;28;20084;-85
2022/02/03 08:05:20;;;;;;;18.90;10.30;;;;;;;5.34;100.00;99433.88;5106418;28;20053;-85
2022/02/03 08:08:16;;;;;;;22.23;10.13;;;;;;;5.31;100.00;99436.84;5105734;28;20036;-84
2022/02/03 08:10:50;;;;;;;22.00;10.95;;;;;;;5.44;100.00;99420.38;5093403;28;20044;-85
2022/02/03 08:13:24;;;;;;;20.17;10.30;;;;;;;5.46;100.00;99399.50;5093325;28;20522;-85
2022/02/03 08:16:06;;;;;;;17.90;10.15;;;;;;;5.59;100.00;99396.50;5103119;28;20043;-85
2022/02/03 08:18:38;;;;;;;19.42;10.07;;;;;;;5.48;100.00;99402.94;5104319;28;20121;-84
2022/02/03 08:21:13;;;;;;;19.52;9.57;;;;;;;5.63;100.00;99398.75;5113889;28;20067;-85
2022/02/03 08:26:45;;;;;;;16.80;9.80;;;;;;;5.68;100.00;99406.41;5089730;28;20513;-85
2022/02/03 08:30:04;;;;;;;15.75;9.55;;;;;;;5.74;100.00;99413.91;5094522;28;20121;-85
2022/02/03 08:32:42;;;;;;;17.27;9.65;;;;;;;5.86;100.00;99406.47;5082993;28;20170;-85
2022/02/03 08:35:22;;;;;;;15.77;9.63;;;;;;;5.87;100.00;99400.06;5074248;28;20048;-85
2022/02/03 08:38:01;;;;;;;20.38;8.90;;;;;;;5.89;100.00;99389.97;5105794;28;20113;-84
2022/02/03 08:40:44;;;;;;;15.85;9.90;;;;;;;6.14;100.00;99410.06;5107994;28;20517;-84
2022/02/03 08:43:13;;;;;;;18.45;8.38;;;;;;;6.16;100.00;99399.13;5096454;28;20079;-85
2022/02/03 08:45:41;;;;;;;17.20;9.73;;;;;;;6.30;100.00;99401.28;5094113;28;20469;-85
2022/02/03 08:48:08;;;;;;;17.48;9.70;;;;;;;6.25;100.00;99395.50;5109357;28;20047;-84
2022/02/03 08:50:37;;;;;;;17.80;10.25;;;;;;;6.34;100.00;99383.78;5096653;28;20071;-85
2022/02/03 08:53:10;;;;;;;15.60;8.67;;;;;;;6.28;100.00;99397.91;5098701;28;20403;-85
2022/02/03 08:55:50;;;;;;;15.95;9.15;;;;;;;6.31;100.00;99396.75;5092842;28;20044;-85
2022/02/03 09:37:15;;;;;;;;;;;;;;;6.82;100.00;99361.94;5092287;28;20253;-85
2022/02/03 09:40:14;;;;;;;9.85;5.80;;;;;;;6.96;100.00;99366.81;5091887;28;20042;-85
2022/02/03 09:54:12;;;;;;;33.90;19.60;;;;;;;7.47;100.00;99333.66;5091560;28;20126;-85
2022/02/03 09:57:03;;;;;;;23.58;13.88;;;;;;;7.61;100.00;99322.25;5091864;28;20488;-84
2022/02/03 09:59:46;;;;;;;;;;;;;;;;;;;;;
2022/02/03 10:02:19;;;;;;;18.98;12.02;;;;;;;7.73;100.00;99317.41;5092560;28;20055;-84
2022/02/03 10:04:50;;;;;;;26.02;15.07;;;;;;;7.78;100.00;99315.91;5102887;28;20051;-84
2022/02/03 10:07:21;;;;;;;18.85;8.23;;;;;;;7.68;100.00;99296.25;5092337;28;20048;-85
2022/02/03 10:09:51;;;;;;;31.45;17.83;;;;;;;7.74;100.00;99292.03;5091417;28;20143;-84
2022/02/03 10:12:18;;;;;;;;;;;;;;;7.83;100.00;99315.41;5091928;28;20498;-84
2022/02/03 10:14:48;;;;;;;30.30;15.77;;;;;;;7.72;100.00;99318.41;5070437;28;20009;-84
2022/02/03 10:17:18;;;;;;;13.15;7.75;;;;;;;7.76;100.00;99333.31;5094482;28;20044;-84
2022/02/03 10:19:59;;;;;;;13.20;8.50;;;;;;;7.74;100.00;99308.28;5095434;28;20047;-85
2022/02/03 10:22:27;;;;;;;22.95;13.32;;;;;;;7.88;100.00;99304.09;5095460;28;20555;-84
2022/02/03 10:25:09;;;;;;;14.80;8.60;;;;;;;7.96;100.00;99298.69;5112480;28;20108;-84
2022/02/03 10:27:38;;;;;;;29.67;13.10;;;;;;;7.96;100.00;99304.97;5088314;28;20086;-84
2022/02/03 10:30:12;;;;;;;22.73;14.77;;;;;;;8.14;100.00;99295.88;5098154;28;20562;-84
2022/02/03 10:32:43;;;;;;;13.10;8.68;;;;;;;8.20;100.00;99297.06;5090139;28;20074;-85
2022/02/03 10:35:40;;;;;;;11.75;6.78;;;;;;;8.29;100.00;99296.06;5103361;28;20142;-84
2022/02/03 10:38:43;;;;;;;16.35;9.10;;;;;;;8.41;100.00;99283.03;5099702;28;20035;-84
2022/02/03 10:41:55;;;;;;;13.63;6.95;;;;;;;8.23;100.00;99262.34;5078570;28;20544;-84
2022/02/03 10:58:55;;;;;;;17.73;6.53;;;;;;;8.48;100.00;99214.50;5013523;28;20148;-84
2022/02/03 11:01:46;;;;;;;21.42;9.15;;;;;;;8.43;100.00;99206.00;5071717;28;20113;-84
2022/02/03 11:07:07;;;;;;;3.83;2.35;;;;;;;8.42;100.00;99179.09;5092670;28;20685;-84
2022/02/03 11:10:02;;;;;;;3.95;2.67;;;;;;;8.63;100.00;99189.44;5091142;28;20446;-84
2022/02/03 11:12:31;;;;;;;6.38;3.85;;;;;;;8.77;100.00;99179.75;5092834;28;20105;-84
2022/02/03 11:15:00;;;;;;;5.45;3.20;;;;;;;8.59;100.00;99177.22;5095522;28;20056;-84
2022/02/03 11:17:30;;;;;;;5.35;3.20;;;;;;;8.60;100.00;99185.19;5071810;28;20055;-84
2022/02/03 11:20:03;;;;;;;3.03;2.05;;;;;;;8.59;100.00;99171.81;5089889;28;20122;-84
2022/02/03 11:22:45;;;;;;;3.55;2.13;;;;;;;8.61;100.00;99167.91;5093415;28;20140;-84
2022/02/03 11:25:24;;;;;;;2.70;2.08;;;;;;;8.49;100.00;99148.47;5097626;28;20044;-84
2022/02/03 11:28:17;;;;;;;4.35;1.63;;;;;;;8.57;100.00;99153.00;5090332;28;20044;-84
2022/02/03 11:37:01;;;;;;;2.53;1.85;;;;;;;8.65;100.00;99135.88;5085834;28;20043;-84
2022/02/03 11:43:16;;;;;;;4.03;2.55;;;;;;;8.78;100.00;99117.22;5095106;22;20045;-84
2022/02/03 11:46:18;;;;;;;2.80;1.85;;;;;;;8.86;100.00;99119.88;5054848;28;20056;-84
2022/02/03 11:49:05;;;;;;;3.30;1.73;;;;;;;8.85;100.00;99109.22;5055481;28;20049;-84
2022/02/03 12:15:03;;;;;;;4.43;2.38;;;;;;;9.02;100.00;99072.88;5073143;28;20499;-85
2022/02/03 12:17:51;;;;;;;2.03;1.50;;;;;;;8.90;100.00;99077.03;5072708;28;20049;-84
2022/02/03 12:20:36;;;;;;;4.18;1.80;;;;;;;9.03;100.00;99058.31;5073629;28;20052;-85
2022/02/03 12:23:09;;;;;;;1.83;1.48;;;;;;;9.05;100.00;99069.00;5073524;28;20054;-85
2022/02/03 12:25:56;;;;;;;3.30;2.53;;;;;;;8.88;100.00;99079.03;5072955;28;20094;-85
2022/02/03 12:28:32;;;;;;;3.67;2.22;;;;;;;8.94;100.00;99080.22;5067009;28;20051;-85
2022/02/03 12:39:49;;;;;;;3.20;2.08;;;;;;;9.19;100.00;99054.66;5066643;28;20086;-85
2022/02/03 12:42:22;;;;;;;11.40;2.30;;;;;;;9.24;100.00;99047.84;5069517;28;20510;-85
2022/02/03 12:44:51;;;;;;;2.70;2.10;;;;;;;9.06;100.00;99031.84;5076426;28;20040;-84
2022/02/03 12:47:21;;;;;;;1.83;1.60;;;;;;;9.13;100.00;99019.28;5072912;28;20583;-85
2022/02/03 12:49:56;;;;;;;2.75;2.08;;;;;;;9.20;100.00;99026.50;5067168;28;20426;-84
2022/02/03 12:52:25;;;;;;;3.60;2.65;;;;;;;9.20;100.00;99017.53;5073207;28;20135;-85
2022/02/03 12:54:51;;;;;;;2.75;2.40;;;;;;;9.28;100.00;99000.38;5071661;28;20055;-85
2022/02/03 12:57:31;;;;;;;4.95;2.88;;;;;;;9.19;100.00;99003.13;5073180;28;20147;-85
2022/02/03 13:00:16;;;;;;;1.98;1.70;;;;;;;9.14;100.00;98986.56;5069524;28;20044;-85
2022/02/03 13:03:00;;;;;;;3.47;1.92;;;;;;;9.37;100.00;99000.09;5072437;28;20076;-85
2022/02/03 13:05:30;;;;;;;3.50;2.25;;;;;;;9.33;100.00;98995.22;5072027;28;20063;-85
2022/02/03 13:08:03;;;;;;;4.57;2.47;;;;;;;9.41;100.00;98987.03;5073033;28;20606;-85
2022/02/03 13:10:33;;;;;;;7.35;4.63;;;;;;;9.25;99.82;98970.88;5072272;28;20083;-84
2022/02/03 13:13:17;;;;;;;14.68;7.65;;;;;;;9.26;100.00;98969.84;5072781;28;20049;-85
2022/02/03 13:15:45;;;;;;;7.30;3.80;;;;;;;9.34;100.00;98970.63;5068534;28;20132;-84
2022/02/03 13:18:17;;;;;;;23.38;11.65;;;;;;;9.42;100.00;98967.00;5072287;28;20044;-85
2022/02/03 13:20:59;;;;;;;5.35;3.55;;;;;;;9.19;100.00;98956.19;5071639;28;20056;-85
2022/02/03 13:23:29;;;;;;;4.68;2.50;;;;;;;9.32;100.00;98979.97;5071774;28;20067;-85
2022/02/03 13:26:06;;;;;;;7.15;2.22;;;;;;;9.24;100.00;98961.88;5072551;28;20102;-85
2022/02/03 13:28:41;;;;;;;3.13;2.22;;;;;;;9.33;100.00;98971.69;5071539;28;20036;-84
2022/02/03 13:31:20;;;;;;;3.30;1.90;;;;;;;9.32;100.00;98948.28;5074952;28;20071;-85
2022/02/03 13:33:59;;;;;;;2.83;2.20;;;;;;;9.37;100.00;98970.25;5080283;28;20045;-85
2022/02/03 13:36:35;;;;;;;4.95;2.60;;;;;;;9.26;100.00;98946.28;5074582;28;20430;-85
2022/02/03 13:39:08;;;;;;;3.15;2.20;;;;;;;9.23;100.00;98933.09;5093159;28;20446;-85
2022/02/03 13:41:40;;;;;;;2.97;2.38;;;;;;;9.32;100.00;98925.72;5085070;28;20131;-85
2022/02/03 13:44:13;;;;;;;2.85;2.08;;;;;;;9.11;100.00;98904.69;5073057;28;20525;-86
2022/02/03 13:46:49;;;;;;;2.78;2.05;;;;;;;9.10;100.00;98912.00;5078093;28;20051;-85
2022/02/03 13:49:17;;;;;;;2.60;2.00;;;;;;;9.08;100.00;98914.06;5063976;28;20102;-85
2022/02/03 13:51:56;;;;;;;3.53;2.05;;;;;;;9.01;100.00;98927.47;5071449;28;20407;-85
2022/02/03 13:54:40;;;;;;;4.55;2.15;;;;;;;8.82;100.00;98919.81;5070380;28;20103;-85
2022/02/03 14:12:07;;;;;;;2.08;1.77;;;;;;;8.72;100.00;98927.38;5070445;28;20056;-85
2022/02/03 14:20:35;;;;;;;2.95;2.10;;;;;;;8.91;100.00;98910.59;5070675;28;20044;-85
2022/02/03 14:23:25;;;;;;;6.00;2.22;;;;;;;8.97;100.00;98923.47;5081765;28;20051;-85
2022/02/03 14:28:41;;;;;;;12.85;6.35;;;;;;;8.84;100.00;98906.94;5071564;28;20522;-85
2022/02/03 14:31:11;;;;;;;5.57;2.30;;;;;;;8.84;100.00;98906.94;5078457;28;20127;-85
2022/02/03 14:33:40;;;;;;;4.68;2.45;;;;;;;8.90;100.00;98910.78;5071634;28;20047;-85
2022/02/03 14:36:10;;;;;;;3.97;1.60;;;;;;;8.89;100.00;98925.38;5072458;28;20433;-85
2022/02/03 14:38:45;;;;;;;4.45;2.08;;;;;;;8.83;100.00;98889.00;5076348;28;20169;-85
2022/02/03 14:41:22;;;;;;;3.40;1.60;;;;;;;8.75;100.00;98894.47;5071165;28;20048;-85
2022/02/03 14:43:49;;;;;;;3.58;1.55;;;;;;;8.76;100.00;98905.13;5090788;28;20055;-85
2022/02/03 14:46:18;;;;;;;4.30;1.73;;;;;;;8.85;100.00;98911.31;5091074;28;20090;-85
2022/02/03 14:48:46;;;;;;;4.15;1.80;;;;;;;8.71;100.00;98902.09;5090631;28;20089;-85
2022/02/03 14:51:17;;;;;;;2.88;1.50;;;;;;;8.63;100.00;98896.75;5091276;28;20090;-85
2022/02/03 14:57:59;;;;;;;3.53;1.90;;;;;;;8.61;100.00;98880.69;5076430;28;20064;-85
2022/02/03 14:59:41;;;;;;;4.22;1.85;;;;;;;8.66;100.00;98897.22;5070543;28;20067;-85
2022/02/03 15:02:08;;;;;;;2.92;1.58;;;;;;;8.53;100.00;98877.16;5070758;28;20063;-85
2022/02/03 15:04:38;;;;;;;4.40;1.50;;;;;;;8.60;100.00;98892.53;5070958;28;20145;-85
2022/02/03 15:07:19;;;;;;;;;;;;;;;;;;;;;
2022/02/03 15:10:03;;;;;;;2.55;1.73;;;;;;;8.50;100.00;98873.78;5079303;28;20509;-84
2022/02/03 15:15:22;;;;;;;4.07;1.45;;;;;;;8.48;100.00;98870.41;5076158;28;20049;-85
2022/02/03 15:17:48;;;;;;;;;;;;;;;8.46;100.00;98879.72;5076374;28;20140;-85
2022/02/03 15:20:17;;;;;;;2.97;1.60;;;;;;;8.25;100.00;98881.19;5075358;28;19924;-85
2022/02/03 15:22:54;;;;;;;2.88;1.75;;;;;;;8.24;100.00;98894.91;5075036;28;20106;-85
2022/02/03 15:25:21;;;;;;;5.90;2.55;;;;;;;8.36;100.00;98881.81;5073765;28;20072;-85
2022/02/03 15:27:50;;;;;;;5.70;2.88;;;;;;;8.42;100.00;98862.97;5075160;28;20484;-84
2022/02/03 15:30:16;;;;;;;10.18;3.47;;;;;;;8.43;100.00;98856.53;5074962;28;20044;-85
2022/02/03 15:32:45;;;;;;;9.25;2.60;;;;;;;8.37;100.00;98869.94;5074262;28;20075;-86
2022/02/03 15:35:24;;;;;;;6.70;3.25;;;;;;;8.14;100.00;98868.88;5054797;28;20115;-85
2022/02/03 15:37:54;;;;;;;4.05;2.50;;;;;;;8.13;100.00;98874.47;5055354;28;20760;-86
2022/02/03 15:40:26;;;;;;;5.68;2.70;;;;;;;8.07;100.00;98888.69;5054844;28;20057;-85
2022/02/03 15:43:02;;;;;;;3.60;2.40;;;;;;;8.01;100.00;98878.56;5054987;28;20049;-85
2022/02/03 15:45:37;;;;;;;3.75;2.17;;;;;;;7.91;100.00;98870.66;5064225;28;20105;-85
2022/02/03 15:48:12;;;;;;;7.13;2.97;;;;;;;7.85;100.00;98863.25;5073524;28;20055;-85
2022/02/03 15:56:27;;;;;;;5.32;2.50;;;;;;;7.65;100.00;98879.88;5074514;28;20063;-86
2022/02/03 16:13:10;;;;;;;5.40;2.28;;;;;;;7.41;100.00;98873.50;5047188;28;20051;-85
2022/02/03 16:18:12;;;;;;;6.05;3.47;;;;;;;6.86;100.00;98839.91;5073550;28;20491;-85
2022/02/03 16:20:44;;;;;;;11.75;3.08;;;;;;;6.76;100.00;98846.50;5073970;28;20056;-85
2022/02/03 16:23:30;;;;;;;3.90;2.47;;;;;;;6.70;100.00;98842.66;5074157;28;20044;-85
2022/02/03 16:43:20;;;;;;;4.43;2.92;;;;;;;6.43;100.00;98877.03;5074097;28;20114;-85
2022/02/03 16:51:07;;;;;;;6.53;4.05;;;;;;;6.20;100.00;98888.44;5073879;28;20142;-85
2022/02/03 16:53:33;;;;;;;11.23;3.92;;;;;;;6.09;100.00;98874.41;5073665;28;20068;-85
2022/02/03 16:56:02;;;;;;;7.35;3.88;;;;;;;6.13;100.00;98887.41;5073006;28;20094;-85
2022/02/03 16:58:33;;;;;;;10.55;4.13;;;;;;;6.04;100.00;98896.47;5073045;28;20080;-85
2022/02/03 17:01:05;;;;;;;45.88;23.30;;;;;;;6.10;100.00;98895.00;5074086;28;20056;-85
2022/02/03 17:03:33;;;;;;;24.60;9.40;;;;;;;6.17;100.00;98882.50;5071682;28;20139;-85
2022/02/03 17:06:05;;;;;;;6.93;4.60;;;;;;;6.09;100.00;98863.59;5073351;28;20045;-85
2022/02/03 17:08:32;;;;;;;13.07;6.40;;;;;;;6.02;100.00;98876.88;5073532;28;20098;-85
2022/02/03 17:10:59;;;;;;;11.73;5.53;;;;;;;5.95;100.00;98875.84;5073002;28;20055;-85
2022/02/03 17:13:25;;;;;;;14.02;6.22;;;;;;;5.78;100.00;98872.19;5069928;28;20051;-86
2022/02/03 17:15:55;;;;;;;17.08;5.82;;;;;;;5.89;100.00;98869.25;5073235;28;20139;-85
2022/02/03 17:18:23;;;;;;;9.57;4.97;;;;;;;5.84;100.00;98871.56;5073669;28;20052;-86
2022/02/03 17:20:51;;;;;;;13.15;5.15;;;;;;;5.98;100.00;98878.25;5072912;28;20405;-85
2022/02/03 17:23:23;;;;;;;12.23;5.43;;;;;;;5.85;100.00;98878.66;5072700;28;20090;-85
2022/02/03 17:25:55;;;;;;;9.75;5.20;;;;;;;5.83;100.00;98888.78;5072761;28;20054;-85
2022/02/03 17:28:31;;;;;;;9.38;5.10;;;;;;;5.67;100.00;98895.78;5073325;28;20381;-85
2022/02/03 17:31:06;;;;;;;20.35;5.68;;;;;;;5.66;100.00;98875.19;5074842;28;20056;-85
2022/02/03 17:53:46;;;;;;;12.55;7.05;;;;;;;5.39;100.00;98873.53;5074114;28;20083;-85
2022/02/03 18:07:23;;;;;;;8.20;5.10;;;;;;;5.68;100.00;98880.44;5070009;28;20040;-85
2022/02/03 18:09:58;;;;;;;20.33;6.40;;;;;;;5.60;100.00;98885.75;5070296;28;20053;-85
2022/02/03 18:35:06;;;;;;;7.93;4.93;;;;;;;5.77;100.00;98887.56;5007867;28;20096;-85
2022/02/03 18:45:45;;;;;;;8.30;5.07;;;;;;;5.81;100.00;98882.66;5055540;28;20143;-86
2022/02/03 18:52:14;;;;;;;11.77;6.85;;;;;;;5.47;100.00;98864.63;5008369;28;20539;-85
2022/02/03 18:57:42;;;;;;;15.27;4.63;;;;;;;5.48;100.00;98877.97;5036867;28;20045;-86
2022/02/03 19:03:11;;;;;;;5.63;3.30;;;;;;;5.46;100.00;98879.13;5070358;28;20048;-86
2022/02/03 19:14:34;;;;;;;8.57;4.30;;;;;;;5.27;100.00;98854.06;5063293;28;20080;-85
2022/02/03 19:28:37;;;;;;;7.00;4.30;;;;;;;4.83;100.00;98878.31;5070052;28;20067;-85
2022/02/03 19:56:55;;;;;;;10.38;6.35;;;;;;;4.45;100.00;98864.16;5075806;28;20091;-85
2022/02/03 20:04:51;;;;;;;14.57;7.68;;;;;;;4.58;100.00;98861.94;5071953;28;20048;-85
2022/02/03 20:07:25;;;;;;;9.27;6.25;;;;;;;4.56;100.00;98857.72;5073211;28;20056;-86
2022/02/03 20:10:04;;;;;;;10.18;6.13;;;;;;;4.64;100.00;98865.00;5072406;28;20102;-86
2022/02/03 20:12:33;;;;;;;6.90;4.88;;;;;;;4.60;100.00;98868.00;5073039;28;20436;-86
2022/02/03 20:15:03;;;;;;;7.30;4.53;;;;;;;4.61;100.00;98858.94;5072388;28;20052;-86
2022/02/03 20:17:29;;;;;;;;;;;;;;;4.66;100.00;98869.25;5073752;28;20470;-86
2022/02/03 20:20:06;;;;;;;5.22;3.83;;;;;;;4.58;100.00;98870.03;5071213;28;19924;-86
2022/02/03 20:22:39;;;;;;;6.93;4.30;;;;;;;4.78;100.00;98876.09;5072862;28;20144;-85
2022/02/03 20:25:08;;;;;;;5.10;3.65;;;;;;;4.73;100.00;98854.16;5071753;28;20165;-85
2022/02/03 20:27:35;;;;;;;5.93;3.63;;;;;;;4.74;100.00;98874.72;5072729;28;20090;-86
2022/02/03 20:30:07;;;;;;;4.38;3.30;;;;;;;4.56;100.00;98861.25;5072510;28;20545;-86
2022/02/03 20:32:36;;;;;;;13.68;7.22;;;;;;;4.53;100.00;98858.00;5073183;28;20072;-86
2022/02/03 20:35:04;;;;;;;19.35;10.75;;;;;;;4.63;100.00;98864.16;5072639;28;20132;-86
2022/02/03 20:37:31;;;;;;;8.95;4.90;;;;;;;4.51;100.00;98868.94;5071388;28;20044;-85
2022/02/03 20:40:00;;;;;;;6.55;4.43;;;;;;;4.40;100.00;98855.72;5072776;28;20048;-86
2022/02/03 20:42:26;;;;;;;5.40;3.67;;;;;;;4.59;100.00;98870.84;5072886;28;20045;-85
2022/02/03 20:44:53;;;;;;;7.75;4.25;;;;;;;4.57;100.00;98871.00;5072884;28;20049;-85
2022/02/03 20:47:20;;;;;;;4.53;3.60;;;;;;;4.47;100.00;98866.72;5074408;28;20189;-85
2022/02/03 20:49:47;;;;;;;5.68;3.72;;;;;;;4.54;100.00;98871.31;5074128;28;20052;-86
2022/02/03 20:52:18;;;;;;;4.45;3.50;;;;;;;4.51;100.00;98871.63;5074233;28;20127;-86
2022/02/03 20:54:44;;;;;;;8.35;4.85;;;;;;;4.42;100.00;98856.41;5073552;28;20048;-85
2022/02/03 20:57:14;;;;;;;9.95;6.05;;;;;;;4.66;100.00;98871.94;5065102;28;20483;-85
2022/02/03 20:59:56;;;;;;;9.13;5.70;;;;;;;4.58;100.00;98866.50;5073999;28;20068;-85
2022/02/03 21:02:32;;;;;;;12.35;6.88;;;;;;;4.55;100.00;98859.56;5073649;28;20056;-86
2022/02/03 21:05:05;;;;;;;12.02;7.28;;;;;;;4.66;100.00;98869.25;5073692;28;20555;-85
2022/02/03 21:07:32;;;;;;;21.13;10.93;;;;;;;4.66;100.00;98855.78;5073789;28;20503;-85
2022/02/03 21:10:00;;;;;;;25.00;12.80;;;;;;;4.75;100.00;98878.25;5073561;28;20106;-85
2022/02/03 21:12:29;;;;;;;32.88;14.63;;;;;;;4.61;100.00;98861.63;5073077;28;20514;-85
2022/02/03 21:14:56;;;;;;;31.08;14.13;;;;;;;4.67;100.00;98862.03;5073214;28;20124;-85
2022/02/03 21:17:24;;;;;;;22.42;11.25;;;;;;;4.67;100.00;98862.03;5073666;28;20075;-86
2022/02/03 21:19:51;;;;;;;19.60;10.35;;;;;;;4.60;100.00;98854.53;5073513;28;20106;-85
2022/02/03 21:22:18;;;;;;;19.52;10.43;;;;;;;4.72;100.00;98871.31;5073592;28;20482;-85
2022/02/03 21:24:45;;;;;;;21.80;10.70;;;;;;;4.74;100.00;98868.47;5072151;28;20047;-85
2022/02/03 21:27:17;;;;;;;17.67;9.30;;;;;;;4.76;100.00;98861.09;5065169;28;20116;-84
2022/02/03 21:29:45;;;;;;;19.95;8.80;;;;;;;4.81;100.00;98849.84;5073736;28;20059;-85
2022/02/03 21:32:12;;;;;;;13.20;8.18;;;;;;;4.79;100.00;98850.84;5072980;28;20101;-83
2022/02/03 21:34:39;;;;;;;13.05;6.90;;;;;;;4.69;100.00;98830.41;5073062;28;20560;-85
2022/02/03 21:37:05;;;;;;;13.60;8.30;;;;;;;4.76;100.00;98845.78;5072958;28;20106;-85
2022/02/03 21:39:32;;;;;;;17.38;8.35;;;;;;;4.68;100.00;98831.41;5072415;28;20054;-85
2022/02/03 21:42:01;;;;;;;21.23;7.97;;;;;;;4.69;100.00;98833.09;5073055;28;20159;-85
2022/02/03 21:44:29;;;;;;;10.57;7.28;;;;;;;4.74;100.00;98838.84;5073245;28;20052;-85
2022/02/03 21:46:57;;;;;;;14.38;8.32;;;;;;;4.73;100.00;98838.00;5072888;28;20082;-85
2022/02/03 21:49:26;;;;;;;15.68;7.22;;;;;;;4.70;100.00;98830.25;5072979;28;20102;-86
